sensor_id;sensor_type;location;lat;lon;timestamp;pressure;altitude;pressure_sealevel;temperature;humidity
20228;BME280;12195;55.790;37.572;2022-07-29T00:01:18;99765.84;;;18.98;66.76
20228;BME280;12195;55.790;37.572;2022-07-29T00:03:50;99764.42;;;18.94;66.66
20228;BME280;12195;55.790;37.572;2022-07-29T00:06:23;99772.11;;;18.87;66.62
20228;BME280;12195;55.790;37.572;2022-07-29T00:08:55;99775.32;;;18.81;66.68
20228;BME280;12195;55.790;37.572;2022-07-29T00:11:26;99784.55;;;18.77;66.83
20228;BME280;12195;55.790;37.572;2022-07-29T00:13:59;99777.80;;;18.73;66.82
20228;BME280;12195;55.790;37.572;2022-07-29T00:16:31;99781.27;;;18.64;67.03
20228;BME280;12195;55.790;37.572;2022-07-29T00:19:03;99776.28;;;18.50;67.41
20228;BME280;12195;55.790;37.572;2022-07-29T00:21:37;99779.60;;;18.43;67.67
20228;BME280;12195;55.790;37.572;2022-07-29T00:24:10;99775.90;;;18.34;67.67
20228;BME280;12195;55.790;37.572;2022-07-29T00:26:42;99781.77;;;18.17;68.52
20228;BME280;12195;55.790;37.572;2022-07-29T00:29:15;99790.78;;;18.05;68.89
20228;BME280;12195;55.790;37.572;2022-07-29T00:31:48;99794.61;;;17.92;69.31
20228;BME280;12195;55.790;37.572;2022-07-29T00:34:21;99785.00;;;17.80;69.58
20228;BME280;12195;55.790;37.572;2022-07-29T00:37:10;99782.38;;;17.69;69.91
20228;BME280;12195;55.790;37.572;2022-07-29T00:39:42;99790.38;;;17.58;70.01
20228;BME280;12195;55.790;37.572;2022-07-29T00:42:15;99783.41;;;17.46;70.58
20228;BME280;12195;55.790;37.572;2022-07-29T00:44:47;99793.77;;;17.38;70.79
20228;BME280;12195;55.790;37.572;2022-07-29T00:47:19;99790.89;;;17.30;70.88
20228;BME280;12195;55.790;37.572;2022-07-29T00:49:51;99798.62;;;17.22;71.05
20228;BME280;12195;55.790;37.572;2022-07-29T00:52:23;99795.50;;;17.17;71.29
20228;BME280;12195;55.790;37.572;2022-07-29T00:54:56;99802.76;;;17.15;70.99
20228;BME280;12195;55.790;37.572;2022-07-29T00:57:31;99806.23;;;17.26;69.81
20228;BME280;12195;55.790;37.572;2022-07-29T01:00:05;99803.47;;;17.17;70.02
20228;BME280;12195;55.790;37.572;2022-07-29T01:02:37;99813.38;;;17.15;69.87
20228;BME280;12195;55.790;37.572;2022-07-29T01:05:11;99809.63;;;17.17;69.55
20228;BME280;12195;55.790;37.572;2022-07-29T01:07:45;99813.73;;;17.10;69.88
20228;BME280;12195;55.790;37.572;2022-07-29T01:10:19;99809.86;;;17.03;70.18
20228;BME280;12195;55.790;37.572;2022-07-29T01:12:53;99817.23;;;17.00;70.25
20228;BME280;12195;55.790;37.572;2022-07-29T01:15:28;99814.93;;;16.95;70.14
20228;BME280;12195;55.790;37.572;2022-07-29T01:18:18;99819.05;;;16.88;70.43
20228;BME280;12195;55.790;37.572;2022-07-29T01:26:57;99815.91;;;16.72;71.44
20228;BME280;12195;55.790;37.572;2022-07-29T01:29:39;99818.45;;;16.74;71.04
20228;BME280;12195;55.790;37.572;2022-07-29T01:32:31;99821.56;;;16.68;71.51
20228;BME280;12195;55.790;37.572;2022-07-29T01:37:43;99819.03;;;16.55;72.17
20228;BME280;12195;55.790;37.572;2022-07-29T01:40:36;99821.31;;;16.49;72.71
20228;BME280;12195;55.790;37.572;2022-07-29T01:43:11;99818.89;;;16.46;72.83
20228;BME280;12195;55.790;37.572;2022-07-29T01:45:50;99822.73;;;16.42;73.05
20228;BME280;12195;55.790;37.572;2022-07-29T01:48:36;99823.59;;;16.42;72.99
20228;BME280;12195;55.790;37.572;2022-07-29T01:51:02;99826.44;;;16.39;73.21
20228;BME280;12195;55.790;37.572;2022-07-29T01:53:34;99819.71;;;16.46;72.80
20228;BME280;12195;55.790;37.572;2022-07-29T01:56:09;99824.67;;;16.51;72.60
20228;BME280;12195;55.790;37.572;2022-07-29T01:58:43;99826.24;;;16.42;73.05
20228;BME280;12195;55.790;37.572;2022-07-29T02:01:18;99825.98;;;16.45;73.09
20228;BME280;12195;55.790;37.572;2022-07-29T02:03:51;99820.45;;;16.48;72.83
20228;BME280;12195;55.790;37.572;2022-07-29T02:06:25;99821.42;;;16.47;72.86
20228;BME280;12195;55.790;37.572;2022-07-29T02:08:59;99825.02;;;16.46;73.12
20228;BME280;12195;55.790;37.572;2022-07-29T02:11:33;99828.18;;;16.51;73.09
20228;BME280;12195;55.790;37.572;2022-07-29T02:14:07;99831.77;;;16.50;73.01
20228;BME280;12195;55.790;37.572;2022-07-29T02:16:42;99837.81;;;16.52;73.18
20228;BME280;12195;55.790;37.572;2022-07-29T02:19:17;99831.42;;;16.55;73.08
20228;BME280;12195;55.790;37.572;2022-07-29T02:21:51;99841.17;;;16.54;73.13
20228;BME280;12195;55.790;37.572;2022-07-29T02:24:25;99828.78;;;16.55;73.26
20228;BME280;12195;55.790;37.572;2022-07-29T02:26:59;99837.09;;;16.61;73.02
20228;BME280;12195;55.790;37.572;2022-07-29T02:29:35;99835.91;;;16.65;73.08
20228;BME280;12195;55.790;37.572;2022-07-29T02:32:10;99835.08;;;16.65;72.93
20228;BME280;12195;55.790;37.572;2022-07-29T02:34:45;99833.14;;;16.67;73.05
20228;BME280;12195;55.790;37.572;2022-07-29T02:37:19;99831.08;;;16.70;73.04
20228;BME280;12195;55.790;37.572;2022-07-29T02:39:53;99840.48;;;16.74;72.89
20228;BME280;12195;55.790;37.572;2022-07-29T02:42:27;99839.91;;;16.82;72.58
20228;BME280;12195;55.790;37.572;2022-07-29T02:44:59;99835.20;;;16.85;72.58
20228;BME280;12195;55.790;37.572;2022-07-29T02:50:21;99834.36;;;16.96;72.24
20228;BME280;12195;55.790;37.572;2022-07-29T02:53:12;99842.67;;;17.02;71.47
20228;BME280;12195;55.790;37.572;2022-07-29T02:55:56;99839.56;;;17.08;71.49
20228;BME280;12195;55.790;37.572;2022-07-29T02:58:32;99832.89;;;17.14;71.24
20228;BME280;12195;55.790;37.572;2022-07-29T03:01:04;99832.54;;;17.18;71.59
20228;BME280;12195;55.790;37.572;2022-07-29T03:03:38;99845.07;;;17.38;70.80
20228;BME280;12195;55.790;37.572;2022-07-29T03:06:14;99830.47;;;17.33;70.32
20228;BME280;12195;55.790;37.572;2022-07-29T03:08:48;99830.23;;;17.36;70.20
20228;BME280;12195;55.790;37.572;2022-07-29T03:11:21;99827.34;;;17.39;69.72
20228;BME280;12195;55.790;37.572;2022-07-29T03:13:55;99838.22;;;17.47;69.42
20228;BME280;12195;55.790;37.572;2022-07-29T03:16:28;99833.26;;;17.53;69.00
20228;BME280;12195;55.790;37.572;2022-07-29T03:19:02;99840.95;;;17.56;68.67
20228;BME280;12195;55.790;37.572;2022-07-29T03:21:35;99830.55;;;17.64;68.52
20228;BME280;12195;55.790;37.572;2022-07-29T03:24:07;99834.92;;;17.65;68.60
20228;BME280;12195;55.790;37.572;2022-07-29T03:26:40;99832.11;;;17.67;68.76
20228;BME280;12195;55.790;37.572;2022-07-29T03:29:13;99826.19;;;17.74;68.19
20228;BME280;12195;55.790;37.572;2022-07-29T03:31:47;99833.52;;;17.82;67.77
20228;BME280;12195;55.790;37.572;2022-07-29T03:34:19;99833.52;;;17.82;67.77
20228;BME280;12195;55.790;37.572;2022-07-29T03:36:53;99832.30;;;17.86;68.08
20228;BME280;12195;55.790;37.572;2022-07-29T03:39:27;99831.81;;;17.92;67.70
20228;BME280;12195;55.790;37.572;2022-07-29T03:42:00;99833.09;;;17.97;67.27
20228;BME280;12195;55.790;37.572;2022-07-29T03:44:33;99827.16;;;18.05;67.00
20228;BME280;12195;55.790;37.572;2022-07-29T03:47:07;99830.84;;;18.13;66.65
20228;BME280;12195;55.790;37.572;2022-07-29T03:49:41;99829.12;;;18.23;66.13
20228;BME280;12195;55.790;37.572;2022-07-29T03:52:14;99823.88;;;18.33;65.25
20228;BME280;12195;55.790;37.572;2022-07-29T03:54:46;99835.82;;;18.38;65.03
20228;BME280;12195;55.790;37.572;2022-07-29T03:57:23;99836.02;;;18.46;64.81
20228;BME280;12195;55.790;37.572;2022-07-29T03:59:55;99839.73;;;18.55;64.13
20228;BME280;12195;55.790;37.572;2022-07-29T04:02:28;99830.26;;;18.62;64.48
20228;BME280;12195;55.790;37.572;2022-07-29T04:05:00;99833.23;;;18.68;63.89
20228;BME280;12195;55.790;37.572;2022-07-29T04:07:33;99836.08;;;18.76;62.96
20228;BME280;12195;55.790;37.572;2022-07-29T04:10:05;99842.83;;;18.80;63.31
20228;BME280;12195;55.790;37.572;2022-07-29T04:12:38;99841.30;;;18.87;62.81
20228;BME280;12195;55.790;37.572;2022-07-29T04:15:11;99845.12;;;18.94;62.01
20228;BME280;12195;55.790;37.572;2022-07-29T04:17:44;99842.64;;;19.02;62.00
20228;BME280;12195;55.790;37.572;2022-07-29T04:20:18;99841.66;;;19.03;62.24
20228;BME280;12195;55.790;37.572;2022-07-29T04:22:50;99844.37;;;19.13;61.83
20228;BME280;12195;55.790;37.572;2022-07-29T04:25:23;99848.31;;;19.18;61.93
20228;BME280;12195;55.790;37.572;2022-07-29T04:27:55;99838.36;;;19.20;61.44
20228;BME280;12195;55.790;37.572;2022-07-29T04:30:35;99844.74;;;19.29;61.72
20228;BME280;12195;55.790;37.572;2022-07-29T04:33:08;99850.06;;;19.29;61.19
20228;BME280;12195;55.790;37.572;2022-07-29T04:35:40;99846.29;;;19.31;61.41
20228;BME280;12195;55.790;37.572;2022-07-29T04:38:14;99851.48;;;19.33;61.21
20228;BME280;12195;55.790;37.572;2022-07-29T04:40:47;99857.67;;;19.33;60.94
20228;BME280;12195;55.790;37.572;2022-07-29T04:43:20;99856.25;;;19.39;60.81
20228;BME280;12195;55.790;37.572;2022-07-29T04:45:53;99859.77;;;19.39;60.40
20228;BME280;12195;55.790;37.572;2022-07-29T04:48:26;99867.50;;;19.42;60.14
20228;BME280;12195;55.790;37.572;2022-07-29T04:50:59;99870.03;;;19.44;60.10
20228;BME280;12195;55.790;37.572;2022-07-29T04:53:31;99868.06;;;19.46;60.02
20228;BME280;12195;55.790;37.572;2022-07-29T04:56:04;99861.62;;;19.48;60.13
20228;BME280;12195;55.790;37.572;2022-07-29T04:58:37;99866.42;;;19.54;59.86
20228;BME280;12195;55.790;37.572;2022-07-29T05:01:09;99858.13;;;19.57;60.17
20228;BME280;12195;55.790;37.572;2022-07-29T05:03:41;99855.79;;;19.64;60.20
20228;BME280;12195;55.790;37.572;2022-07-29T05:06:14;99865.48;;;19.74;59.62
20228;BME280;12195;55.790;37.572;2022-07-29T05:08:46;99866.73;;;19.80;59.44
20228;BME280;12195;55.790;37.572;2022-07-29T05:11:18;99865.64;;;19.82;59.78
20228;BME280;12195;55.790;37.572;2022-07-29T05:13:52;99859.88;;;19.87;59.93
20228;BME280;12195;55.790;37.572;2022-07-29T05:16:25;99863.09;;;19.90;59.57
20228;BME280;12195;55.790;37.572;2022-07-29T05:18:57;99871.25;;;19.98;59.90
20228;BME280;12195;55.790;37.572;2022-07-29T05:21:30;99865.10;;;20.07;59.83
20228;BME280;12195;55.790;37.572;2022-07-29T05:24:04;99873.83;;;20.19;59.50
20228;BME280;12195;55.790;37.572;2022-07-29T05:26:37;99868.77;;;20.25;58.52
20228;BME280;12195;55.790;37.572;2022-07-29T05:29:09;99880.55;;;20.51;58.35
20228;BME280;12195;55.790;37.572;2022-07-29T05:31:43;99864.57;;;20.42;58.39
20228;BME280;12195;55.790;37.572;2022-07-29T05:34:15;99865.93;;;20.55;57.94
20228;BME280;12195;55.790;37.572;2022-07-29T05:36:49;99865.78;;;20.67;57.88
20228;BME280;12195;55.790;37.572;2022-07-29T05:39:22;99864.23;;;20.74;57.37
20228;BME280;12195;55.790;37.572;2022-07-29T05:41:56;99860.55;;;20.84;56.78
20228;BME280;12195;55.790;37.572;2022-07-29T05:44:28;99857.19;;;20.92;56.69
20228;BME280;12195;55.790;37.572;2022-07-29T05:47:00;99853.48;;;21.02;55.27
20228;BME280;12195;55.790;37.572;2022-07-29T05:49:32;99856.62;;;20.98;56.01
20228;BME280;12195;55.790;37.572;2022-07-29T05:52:04;99855.63;;;20.99;56.32
20228;BME280;12195;55.790;37.572;2022-07-29T05:54:37;99852.35;;;21.05;56.22
20228;BME280;12195;55.790;37.572;2022-07-29T05:57:21;99858.06;;;21.19;55.89
20228;BME280;12195;55.790;37.572;2022-07-29T05:59:43;99854.21;;;21.31;55.70
20228;BME280;12195;55.790;37.572;2022-07-29T06:02:16;99854.13;;;21.50;54.88
20228;BME280;12195;55.790;37.572;2022-07-29T06:04:50;99856.28;;;21.64;54.29
20228;BME280;12195;55.790;37.572;2022-07-29T06:07:23;99856.28;;;21.64;53.74
20228;BME280;12195;55.790;37.572;2022-07-29T06:09:55;99859.23;;;21.71;53.38
20228;BME280;12195;55.790;37.572;2022-07-29T06:12:27;99848.63;;;21.79;53.12
20228;BME280;12195;55.790;37.572;2022-07-29T06:14:59;99857.14;;;21.92;52.45
20228;BME280;12195;55.790;37.572;2022-07-29T06:17:32;99838.66;;;21.98;52.39
20228;BME280;12195;55.790;37.572;2022-07-29T06:20:05;99851.11;;;22.07;51.61
20228;BME280;12195;55.790;37.572;2022-07-29T06:22:39;99852.48;;;22.11;51.45
20228;BME280;12195;55.790;37.572;2022-07-29T06:25:12;99841.37;;;22.24;50.98
20228;BME280;12195;55.790;37.572;2022-07-29T06:27:44;99849.55;;;22.40;49.62
20228;BME280;12195;55.790;37.572;2022-07-29T06:30:16;99850.07;;;22.61;49.31
20228;BME280;12195;55.790;37.572;2022-07-29T06:32:49;99847.84;;;22.74;48.99
20228;BME280;12195;55.790;37.572;2022-07-29T06:35:21;99837.55;;;22.87;47.98
20228;BME280;12195;55.790;37.572;2022-07-29T06:37:55;99847.00;;;22.99;47.78
20228;BME280;12195;55.790;37.572;2022-07-29T06:40:29;99836.38;;;23.15;47.38
20228;BME280;12195;55.790;37.572;2022-07-29T06:43:19;99835.28;;;23.25;46.66
20228;BME280;12195;55.790;37.572;2022-07-29T06:45:52;99834.43;;;23.25;46.52
20228;BME280;12195;55.790;37.572;2022-07-29T06:48:25;99837.96;;;23.25;46.62
20228;BME280;12195;55.790;37.572;2022-07-29T06:50:57;99840.25;;;23.20;46.40
20228;BME280;12195;55.790;37.572;2022-07-29T06:53:31;99830.78;;;23.34;46.64
20228;BME280;12195;55.790;37.572;2022-07-29T06:56:05;99835.67;;;23.38;46.31
20228;BME280;12195;55.790;37.572;2022-07-29T06:58:39;99827.09;;;23.35;46.74
20228;BME280;12195;55.790;37.572;2022-07-29T07:01:11;99831.94;;;23.31;46.92
20228;BME280;12195;55.790;37.572;2022-07-29T07:03:44;99832.86;;;23.48;46.37
20228;BME280;12195;55.790;37.572;2022-07-29T07:06:17;99832.91;;;23.64;45.57
20228;BME280;12195;55.790;37.572;2022-07-29T07:08:50;99828.73;;;23.77;44.82
20228;BME280;12195;55.790;37.572;2022-07-29T07:11:22;99832.61;;;23.83;43.59
20228;BME280;12195;55.790;37.572;2022-07-29T07:13:55;99836.44;;;23.72;43.40
20228;BME280;12195;55.790;37.572;2022-07-29T07:16:29;99839.95;;;23.65;43.45
20228;BME280;12195;55.790;37.572;2022-07-29T07:19:02;99840.13;;;23.71;43.67
20228;BME280;12195;55.790;37.572;2022-07-29T07:21:35;99838.96;;;23.74;43.51
20228;BME280;12195;55.790;37.572;2022-07-29T07:24:08;99841.66;;;23.82;43.51
20228;BME280;12195;55.790;37.572;2022-07-29T07:26:40;99845.42;;;23.97;42.33
20228;BME280;12195;55.790;37.572;2022-07-29T07:29:13;99848.47;;;24.18;42.59
20228;BME280;12195;55.790;37.572;2022-07-29T07:31:45;99851.00;;;24.19;42.48
20228;BME280;12195;55.790;37.572;2022-07-29T07:34:18;99849.13;;;24.20;42.19
20228;BME280;12195;55.790;37.572;2022-07-29T07:36:52;99851.82;;;24.28;42.39
20228;BME280;12195;55.790;37.572;2022-07-29T07:39:25;99850.81;;;24.53;41.70
20228;BME280;12195;55.790;37.572;2022-07-29T07:41:58;99853.03;;;24.65;40.59
20228;BME280;12195;55.790;37.572;2022-07-29T07:44:31;99855.20;;;24.62;41.36
20228;BME280;12195;55.790;37.572;2022-07-29T07:47:05;99852.84;;;24.43;40.09
20228;BME280;12195;55.790;37.572;2022-07-29T07:49:39;99850.31;;;24.33;40.49
20228;BME280;12195;55.790;37.572;2022-07-29T07:52:15;99844.95;;;24.25;40.26
20228;BME280;12195;55.790;37.572;2022-07-29T07:54:49;99849.83;;;24.30;39.76
20228;BME280;12195;55.790;37.572;2022-07-29T07:57:21;99851.83;;;24.52;39.51
20228;BME280;12195;55.790;37.572;2022-07-29T07:59:54;99855.87;;;24.72;39.33
20228;BME280;12195;55.790;37.572;2022-07-29T08:02:26;99856.73;;;24.64;39.71
20228;BME280;12195;55.790;37.572;2022-07-29T08:04:59;99859.56;;;24.55;40.00
20228;BME280;12195;55.790;37.572;2022-07-29T08:07:31;99860.38;;;24.39;39.19
20228;BME280;12195;55.790;37.572;2022-07-29T08:10:04;99863.91;;;24.40;38.95
20228;BME280;12195;55.790;37.572;2022-07-29T08:12:37;99856.02;;;24.38;39.09
20228;BME280;12195;55.790;37.572;2022-07-29T08:15:10;99860.05;;;24.34;39.11
20228;BME280;12195;55.790;37.572;2022-07-29T08:17:42;99856.37;;;24.27;38.75
20228;BME280;12195;55.790;37.572;2022-07-29T08:20:14;99861.73;;;24.27;38.17
20228;BME280;12195;55.790;37.572;2022-07-29T08:22:47;99862.08;;;24.32;37.83
20228;BME280;12195;55.790;37.572;2022-07-29T08:25:19;99856.19;;;24.45;37.43
20228;BME280;12195;55.790;37.572;2022-07-29T08:27:52;99861.39;;;24.54;37.29
20228;BME280;12195;55.790;37.572;2022-07-29T08:30:24;99859.22;;;24.66;36.53
20228;BME280;12195;55.790;37.572;2022-07-29T08:32:57;99853.34;;;24.86;37.72
20228;BME280;12195;55.790;37.572;2022-07-29T08:35:30;99855.14;;;25.02;37.47
20228;BME280;12195;55.790;37.572;2022-07-29T08:38:05;99846.72;;;25.13;37.48
20228;BME280;12195;55.790;37.572;2022-07-29T08:40:37;99850.08;;;25.07;38.13
20228;BME280;12195;55.790;37.572;2022-07-29T08:43:09;99851.44;;;25.03;38.54
20228;BME280;12195;55.790;37.572;2022-07-29T08:45:47;99850.43;;;25.12;37.98
20228;BME280;12195;55.790;37.572;2022-07-29T08:48:22;99854.05;;;25.27;36.69
20228;BME280;12195;55.790;37.572;2022-07-29T08:50:54;99840.08;;;25.48;36.15
20228;BME280;12195;55.790;37.572;2022-07-29T08:53:27;99855.33;;;25.86;38.02
20228;BME280;12195;55.790;37.572;2022-07-29T08:56:01;99837.31;;;25.64;36.50
20228;BME280;12195;55.790;37.572;2022-07-29T08:58:34;99848.34;;;25.38;36.95
20228;BME280;12195;55.790;37.572;2022-07-29T09:01:09;99852.08;;;25.21;37.00
20228;BME280;12195;55.790;37.572;2022-07-29T09:03:45;99850.43;;;25.12;36.77
20228;BME280;12195;55.790;37.572;2022-07-29T09:06:19;99853.94;;;25.13;37.17
20228;BME280;12195;55.790;37.572;2022-07-29T09:08:53;99842.39;;;25.04;36.37
20228;BME280;12195;55.790;37.572;2022-07-29T09:11:26;99847.08;;;25.02;36.88
20228;BME280;12195;55.790;37.572;2022-07-29T09:13:59;99853.45;;;25.09;36.64
20228;BME280;12195;55.790;37.572;2022-07-29T09:16:50;99850.03;;;25.23;36.86
20228;BME280;12195;55.790;37.572;2022-07-29T09:19:32;99844.12;;;25.44;36.78
20228;BME280;12195;55.790;37.572;2022-07-29T09:22:07;99843.88;;;25.61;36.51
20228;BME280;12195;55.790;37.572;2022-07-29T09:24:46;99839.41;;;25.76;36.55
20228;BME280;12195;55.790;37.572;2022-07-29T09:27:23;99853.88;;;25.75;36.28
20228;BME280;12195;55.790;37.572;2022-07-29T09:30:06;99847.59;;;25.52;36.25
20228;BME280;12195;55.790;37.572;2022-07-29T09:33:00;99841.50;;;25.28;36.85
20228;BME280;12195;55.790;37.572;2022-07-29T09:35:33;99844.39;;;25.02;37.33
20228;BME280;12195;55.790;37.572;2022-07-29T09:38:13;99851.41;;;25.11;37.60
20228;BME280;12195;55.790;37.572;2022-07-29T09:40:55;99847.63;;;25.44;37.20
20228;BME280;12195;55.790;37.572;2022-07-29T09:43:21;99849.22;;;25.69;36.46
20228;BME280;12195;55.790;37.572;2022-07-29T09:45:53;99847.19;;;26.02;35.95
20228;BME280;12195;55.790;37.572;2022-07-29T09:48:26;99843.37;;;26.19;34.86
20228;BME280;12195;55.790;37.572;2022-07-29T09:50:58;99855.28;;;26.24;34.31
20228;BME280;12195;55.790;37.572;2022-07-29T09:53:34;99847.49;;;26.29;34.20
20228;BME280;12195;55.790;37.572;2022-07-29T09:56:08;99842.05;;;26.37;34.64
20228;BME280;12195;55.790;37.572;2022-07-29T09:58:41;99841.87;;;26.61;34.79
20228;BME280;12195;55.790;37.572;2022-07-29T10:01:14;99856.88;;;26.93;32.99
20228;BME280;12195;55.790;37.572;2022-07-29T10:03:53;99855.67;;;26.95;32.90
20228;BME280;12195;55.790;37.572;2022-07-29T10:06:25;99856.06;;;26.92;33.41
20228;BME280;12195;55.790;37.572;2022-07-29T10:09:10;99853.81;;;26.81;33.79
20228;BME280;12195;55.790;37.572;2022-07-29T10:11:48;99850.86;;;26.91;34.17
20228;BME280;12195;55.790;37.572;2022-07-29T10:14:19;99854.17;;;26.78;34.34
20228;BME280;12195;55.790;37.572;2022-07-29T10:16:52;99847.55;;;26.66;34.68
20228;BME280;12195;55.790;37.572;2022-07-29T10:19:25;99845.91;;;26.57;34.76
20228;BME280;12195;55.790;37.572;2022-07-29T10:21:59;99851.38;;;26.49;34.70
20228;BME280;12195;55.790;37.572;2022-07-29T10:24:32;99846.34;;;26.46;35.06
20228;BME280;12195;55.790;37.572;2022-07-29T10:27:07;99841.75;;;26.32;34.65
20228;BME280;12195;55.790;37.572;2022-07-29T10:29:40;99840.73;;;26.33;34.99
20228;BME280;12195;55.790;37.572;2022-07-29T10:32:56;99845.94;;;26.35;34.58
20228;BME280;12195;55.790;37.572;2022-07-29T10:41:59;99843.47;;;26.70;32.53
20228;BME280;12195;55.790;37.572;2022-07-29T10:46:44;99837.54;;;26.75;32.64
20228;BME280;12195;55.790;37.572;2022-07-29T10:49:24;99835.04;;;26.88;32.89
20228;BME280;12195;55.790;37.572;2022-07-29T10:52:09;99831.91;;;27.13;32.66
20228;BME280;12195;55.790;37.572;2022-07-29T10:54:47;99832.55;;;27.44;32.07
20228;BME280;12195;55.790;37.572;2022-07-29T10:57:23;99829.94;;;27.51;31.41
20228;BME280;12195;55.790;37.572;2022-07-29T11:00:40;99835.15;;;27.52;31.56
20228;BME280;12195;55.790;37.572;2022-07-29T11:02:46;99840.09;;;27.49;31.71
20228;BME280;12195;55.790;37.572;2022-07-29T11:05:20;99837.21;;;27.50;31.55
20228;BME280;12195;55.790;37.572;2022-07-29T11:10:53;99837.34;;;27.78;31.76
20228;BME280;12195;55.790;37.572;2022-07-29T11:13:47;99841.06;;;27.91;30.27
20228;BME280;12195;55.790;37.572;2022-07-29T11:16:22;99837.70;;;27.75;30.40
20228;BME280;12195;55.790;37.572;2022-07-29T11:21:50;99834.30;;;27.66;30.73
20228;BME280;12195;55.790;37.572;2022-07-29T11:24:30;99835.14;;;28.02;30.31
20228;BME280;12195;55.790;37.572;2022-07-29T11:27:19;99839.56;;;28.45;29.43
20228;BME280;12195;55.790;37.572;2022-07-29T11:29:55;99832.41;;;29.14;28.42
20228;BME280;12195;55.790;37.572;2022-07-29T11:32:41;99824.40;;;29.74;27.89
20228;BME280;12195;55.790;37.572;2022-07-29T11:35:18;99832.92;;;29.71;27.95
20228;BME280;12195;55.790;37.572;2022-07-29T11:38:23;99842.56;;;29.05;28.58
20228;BME280;12195;55.790;37.572;2022-07-29T11:41:19;99845.59;;;28.47;29.83
20228;BME280;12195;55.790;37.572;2022-07-29T11:44:03;99841.58;;;28.01;31.06
20228;BME280;12195;55.790;37.572;2022-07-29T11:46:49;99853.72;;;27.76;32.03
20228;BME280;12195;55.790;37.572;2022-07-29T11:49:25;99845.47;;;27.63;32.36
20228;BME280;12195;55.790;37.572;2022-07-29T11:51:59;99853.27;;;27.73;32.42
20228;BME280;12195;55.790;37.572;2022-07-29T11:54:34;99854.02;;;27.81;32.34
20228;BME280;12195;55.790;37.572;2022-07-29T11:57:09;99855.46;;;28.82;30.91
20228;BME280;12195;55.790;37.572;2022-07-29T11:59:43;99844.36;;;30.33;28.47
20228;BME280;12195;55.790;37.572;2022-07-29T12:02:16;99835.09;;;32.39;25.75
20228;BME280;12195;55.790;37.572;2022-07-29T12:04:53;99837.95;;;33.18;24.80
20228;BME280;12195;55.790;37.572;2022-07-29T12:07:33;99845.03;;;33.44;24.84
20228;BME280;12195;55.790;37.572;2022-07-29T12:10:07;99831.95;;;32.05;25.99
20228;BME280;12195;55.790;37.572;2022-07-29T12:12:41;99831.83;;;31.17;26.72
20228;BME280;12195;55.790;37.572;2022-07-29T12:15:17;99831.65;;;30.34;27.98
20228;BME280;12195;55.790;37.572;2022-07-29T12:17:52;99834.16;;;29.69;28.67
20228;BME280;12195;55.790;37.572;2022-07-29T12:20:27;99834.59;;;29.32;29.55
20228;BME280;12195;55.790;37.572;2022-07-29T12:23:09;99840.25;;;29.02;29.46
20228;BME280;12195;55.790;37.572;2022-07-29T12:25:36;99829.00;;;29.87;28.40
20228;BME280;12195;55.790;37.572;2022-07-29T12:28:11;99828.42;;;32.60;24.57
20228;BME280;12195;55.790;37.572;2022-07-29T12:30:47;99818.04;;;34.60;22.27
20228;BME280;12195;55.790;37.572;2022-07-29T12:33:24;99813.15;;;34.39;22.62
20228;BME280;12195;55.790;37.572;2022-07-29T12:36:00;99817.00;;;33.73;23.12
20228;BME280;12195;55.790;37.572;2022-07-29T12:38:35;99823.64;;;32.80;24.39
20228;BME280;12195;55.790;37.572;2022-07-29T12:41:08;99820.81;;;32.13;25.12
20228;BME280;12195;55.790;37.572;2022-07-29T12:43:53;99811.16;;;31.29;25.88
20228;BME280;12195;55.790;37.572;2022-07-29T12:46:15;99823.38;;;31.51;25.93
20228;BME280;12195;55.790;37.572;2022-07-29T12:48:50;99825.40;;;33.71;23.36
20228;BME280;12195;55.790;37.572;2022-07-29T12:51:38;99812.28;;;35.77;20.91
20228;BME280;12195;55.790;37.572;2022-07-29T12:54:09;99810.04;;;36.96;19.65
20228;BME280;12195;55.790;37.572;2022-07-29T12:56:43;99809.75;;;38.22;18.43
20228;BME280;12195;55.790;37.572;2022-07-29T12:59:16;99807.99;;;40.43;16.67
20228;BME280;12195;55.790;37.572;2022-07-29T13:01:50;99824.22;;;41.94;17.03
20228;BME280;12195;55.790;37.572;2022-07-29T13:04:28;99814.95;;;39.74;16.96
20228;BME280;12195;55.790;37.572;2022-07-29T13:07:02;99820.30;;;41.31;17.26
20228;BME280;12195;55.790;37.572;2022-07-29T13:09:39;99816.79;;;41.11;15.78
20228;BME280;12195;55.790;37.572;2022-07-29T13:12:14;99811.72;;;39.31;17.20
20228;BME280;12195;55.790;37.572;2022-07-29T13:14:47;99818.52;;;37.33;18.83
20228;BME280;12195;55.790;37.572;2022-07-29T13:17:21;99819.27;;;35.33;20.78
20228;BME280;12195;55.790;37.572;2022-07-29T13:20:08;99818.87;;;33.72;22.75
20228;BME280;12195;55.790;37.572;2022-07-29T13:22:42;99815.83;;;35.77;20.81
20228;BME280;12195;55.790;37.572;2022-07-29T13:25:30;99808.06;;;38.16;18.11
20228;BME280;12195;55.790;37.572;2022-07-29T13:28:03;99807.73;;;40.70;15.97
20228;BME280;12195;55.790;37.572;2022-07-29T13:30:35;99808.30;;;42.24;14.66
20228;BME280;12195;55.790;37.572;2022-07-29T13:33:10;99800.05;;;43.38;13.71
20228;BME280;12195;55.790;37.572;2022-07-29T13:35:42;99805.43;;;43.95;13.22
20228;BME280;12195;55.790;37.572;2022-07-29T13:38:15;99801.98;;;44.03;13.33
20228;BME280;12195;55.790;37.572;2022-07-29T13:40:49;99791.25;;;44.52;12.84
20228;BME280;12195;55.790;37.572;2022-07-29T13:43:21;99789.59;;;45.43;12.36
20228;BME280;12195;55.790;37.572;2022-07-29T13:45:54;99795.77;;;46.02;11.77
20228;BME280;12195;55.790;37.572;2022-07-29T13:48:27;99795.58;;;46.34;11.66
20228;BME280;12195;55.790;37.572;2022-07-29T13:51:00;99804.41;;;46.14;11.53
20228;BME280;12195;55.790;37.572;2022-07-29T13:53:33;99792.00;;;46.78;11.42
20228;BME280;12195;55.790;37.572;2022-07-29T13:56:05;99800.80;;;47.41;10.86